Terminal Aerodrome Forecast
Issued by NWS Jackson, MS

Current Version | Previous Version | Text Only | Print | Product List | Glossary On
Versions: 1 2 3 4 5 6 7 8 9 10 11 12 13 14 15
000
FTUS44 KJAN 022300
TAFMEI
TAF
KMEI 022320Z 0300/0324 04004KT 4SM BR VCSH OVC004
     FM030400 VRB03KT 1 1/2SM BR OVC003
     FM030700 12003KT 1/2SM FG OVC001
     FM031500 18004KT 4SM BR OVC003
     FM031700 18005KT 5SM BR OVC003
     FM031900 18006KT 6SM BR OVC007
     FM032000 18008KT P6SM OVC015=

USA.gov is the U.S. government's official web portal to all federal, state and local government web resources and services.